AirNav   Pilot Hours Calculator
 
 1014 users online  

07OK Pleasant Valley Airport
Snyder, Oklahoma, USA

GOING TO SNYDER?


FAA INFORMATION EFFECTIVE 03 NOVEMBER 2022

Location

FAA Identifier: 07OK
Lat/Long: 34-38-00.2570N 099-02-01.2790W
34-38.004283N 099-02.021317W
34.6334047,-99.0336886
(estimated)
Elevation: 1322 ft. / 403 m (estimated)
Variation: 08E (1985)
From city: 5 miles SW of SNYDER, OK
Time zone: UTC -6 (UTC -5 during Daylight Saving Time)
Zip code: 73566

Airport Operations

Airport use: Private use. Permission required prior to landing
Activation date: 09/1982
Control tower: no
ARTCC: FORT WORTH CENTER
FSS: MC ALESTER FLIGHT SERVICE STATION
Attendance: 0600-2200
Wind indicator: yes
Segmented circle: no
Beacon: white-green (lighted land airport)
Operates sunset to sunrise.

Airport Communications

UNICOM: 122.8
WX AWOS-3PT at AXS (16 nm W): 118.825 (580-477-1745)
WX ASOS at FDR (17 nm S): 132.675 (580-335-7591)

Nearby radio navigation aids

VOR radial/distance  VOR name  Freq  Var
LTSr094/11.9ALTUS VORTAC109.8005E
HBRr164/14.1HOBART VORTAC111.8010E
LAWr276/31.7LAWTON VOR/DME109.4009E
BFVr162/37.2BURNS FLAT VORTAC110.0005E

Airport Services

Fuel available: MOGAS

Runway Information

Runway 17/35

Dimensions: 2400 x 80 ft. / 732 x 24 m
Surface: turf
RUNWAY 17  RUNWAY 35
Traffic pattern: leftleft

Airport Ownership and Management from official FAA records

Ownership: Privately-owned
Owner: COYT E. JOHNSTON
22148 CO. RD. EW165
SNYDER, OK 73566
Phone 405-569-2895
Manager: COYT E. JOHNSTON
22148 CO. RD. EW. 165
SNYDER, OK 73566
Phone 405-569-2895

Airport Operational Statistics

Aircraft based on the field: 4
Single engine airplanes: 4
    

Additional Remarks

FOR CD CTC FORT WORTH ARTCC AT 817-858-7584.

Instrument Procedures

There are no published instrument procedures at 07OK.

Some nearby airports with instrument procedures:

KLTS - Altus Air Force Base (12 nm W)
KAXS - Altus/Quartz Mountain Regional Airport (16 nm W)
KFDR - Frederick Regional Airport (17 nm S)
KHBR - Hobart Regional Airport (21 nm N)
F05 - Wilbarger County Airport (27 nm SW)
 
Loc | Ops | Rwys | IFR | FBO | Links
Com | Nav | Svcs | Stats | Notes

AirBoss

 
Area around 07OK (Pleasant Valley Airport)
 
Road maps at: MapQuest Bing Google
 
Aerial photo
WARNING: Photo may not be current or correct
Aerial photo of 07OK (Pleasant Valley Airport)
Do you have a better or more recent aerial photo of Pleasant Valley Airport that you would like to share? If so, please send us your photo.

 
Sectional chart

 
Airport distance calculator
Flying to Pleasant Valley Airport? Find the distance to fly.

From to 07OK

Sunrise and sunset
Times for 29-Nov-2022
 Local
(UTC-6)
 Zulu
(UTC)
Morning civil twilight06:5712:57
Sunrise07:2413:24
Sunset17:2523:25
Evening civil twilight17:5223:52

Current date and time
Zulu (UTC)  30-Nov-2022 01:32:44
Local (UTC-6)  29-Nov-2022 19:32:44
 
METAR
KLTS 
12nm W 
300055Z AUTO 36028G34KT 10SM CLR 04/M03 A2999 RMK AO2 PK WND 01036/40 SLP162 T00381030 $
KAXS 
15nm W 
300115Z AUTO 36018G27KT 10SM CLR 03/M03 A3006 RMK AO2 T00341027
KFDR 
17nm S 
300053Z AUTO 36026G35KT 10SM CLR 04/M01 A2996 RMK AO2 PK WND 36037/0008 PRESRR SLP146 T00441011
KHBR 
21nm N 
300053Z AUTO 01020KT 10SM FEW030 02/M03 A3004 RMK AO2 PK WND 01032/0028 PRESRR SLP175 T00221028
TAF
KLTS 
12nm W 
291800Z 2918/3023 33012G18KT 9999 SKC QNH2961INS BECMG 2923/2924 36015G25KT 9999 SKC 510003 QNH2975INS TEMPO 3000/3006 36025G35KT BECMG 3006/3007 02012KT 9999 SKC QNH3018INS BECMG 3011/3012 VRB06KT 9999 SKC QNH3030INS TX22/2921Z TNM04/3012Z
NOTAMs
Click for the latest NOTAMs
NOTAMs are issued by the DoD/FAA and will open in a separate window not controlled by AirNav.

 

 
 

Would you like to see your business listed on this page?

 If your business provides an interesting product or service to pilots, flight crews, aircraft, or users of the Pleasant Valley Airport, you should consider listing it here.  To start the listing process, click on the button below
 
Add a business
 

Other Pages about Pleasant Valley Airport

Update a link
 
Copyright © AirNav, LLC. All rights reserved. Privacy Policy  Contact